sensor_id;sensor_type;location;lat;lon;timestamp;pressure;altitude;pressure_sealevel;temperature;humidity
16738;BME280;17906;47.684;10.806;2023-03-19T00:01:20;92923.81;;;2.21;95.06
16738;BME280;17906;47.684;10.806;2023-03-19T00:03:47;92915.78;;;2.21;94.66
16738;BME280;17906;47.684;10.806;2023-03-19T00:06:14;92922.81;;;2.16;95.22
16738;BME280;17906;47.684;10.806;2023-03-19T00:08:40;92930.63;;;2.17;94.52
16738;BME280;17906;47.684;10.806;2023-03-19T00:11:08;92935.13;;;2.10;94.60
16738;BME280;17906;47.684;10.806;2023-03-19T00:13:35;92932.03;;;2.06;95.16
16738;BME280;17906;47.684;10.806;2023-03-19T00:16:04;92939.44;;;1.98;95.52
16738;BME280;17906;47.684;10.806;2023-03-19T00:18:31;92933.69;;;1.94;95.60
16738;BME280;17906;47.684;10.806;2023-03-19T00:20:58;92931.00;;;1.94;95.07
16738;BME280;17906;47.684;10.806;2023-03-19T00:23:24;92936.13;;;1.89;96.40
16738;BME280;17906;47.684;10.806;2023-03-19T00:25:52;92938.59;;;1.91;96.22
16738;BME280;17906;47.684;10.806;2023-03-19T00:28:19;92941.25;;;1.77;94.35
16738;BME280;17906;47.684;10.806;2023-03-19T00:30:45;92935.25;;;1.69;95.32
16738;BME280;17906;47.684;10.806;2023-03-19T00:33:13;92937.09;;;1.68;95.54
16738;BME280;17906;47.684;10.806;2023-03-19T00:35:40;92935.69;;;1.72;94.91
16738;BME280;17906;47.684;10.806;2023-03-19T00:38:06;92938.38;;;1.72;93.89
16738;BME280;17906;47.684;10.806;2023-03-19T00:40:33;92938.53;;;1.71;93.31
16738;BME280;17906;47.684;10.806;2023-03-19T00:43:00;92940.63;;;1.75;93.10
16738;BME280;17906;47.684;10.806;2023-03-19T00:45:26;92939.59;;;1.76;92.85
16738;BME280;17906;47.684;10.806;2023-03-19T00:47:54;92940.41;;;1.64;93.13
16738;BME280;17906;47.684;10.806;2023-03-19T00:50:23;92928.28;;;1.61;92.58
16738;BME280;17906;47.684;10.806;2023-03-19T00:52:50;92936.47;;;1.53;92.43
16738;BME280;17906;47.684;10.806;2023-03-19T00:55:17;92929.69;;;1.51;91.92
16738;BME280;17906;47.684;10.806;2023-03-19T00:57:44;92939.72;;;1.42;93.93
16738;BME280;17906;47.684;10.806;2023-03-19T01:00:11;92932.69;;;1.34;94.51
16738;BME280;17906;47.684;10.806;2023-03-19T01:02:38;92943.53;;;1.26;95.03
16738;BME280;17906;47.684;10.806;2023-03-19T01:05:05;92941.84;;;1.12;98.87
16738;BME280;17906;47.684;10.806;2023-03-19T01:07:33;92943.09;;;1.09;99.73
16738;BME280;17906;47.684;10.806;2023-03-19T01:10:00;92938.06;;;0.93;99.80
16738;BME280;17906;47.684;10.806;2023-03-19T01:12:27;92934.81;;;1.04;97.97
16738;BME280;17906;47.684;10.806;2023-03-19T01:14:53;92939.00;;;0.79;100.00
16738;BME280;17906;47.684;10.806;2023-03-19T01:17:20;92934.22;;;0.68;100.00
16738;BME280;17906;47.684;10.806;2023-03-19T01:19:47;92941.75;;;0.57;100.00
16738;BME280;17906;47.684;10.806;2023-03-19T01:22:14;92939.78;;;0.73;98.83
16738;BME280;17906;47.684;10.806;2023-03-19T01:24:43;92938.59;;;0.75;99.69
16738;BME280;17906;47.684;10.806;2023-03-19T01:27:10;92936.16;;;0.80;97.78
16738;BME280;17906;47.684;10.806;2023-03-19T01:29:37;92940.44;;;0.75;96.43
16738;BME280;17906;47.684;10.806;2023-03-19T01:32:03;92943.72;;;0.77;96.72
16738;BME280;17906;47.684;10.806;2023-03-19T01:34:30;92948.44;;;0.75;97.23
16738;BME280;17906;47.684;10.806;2023-03-19T01:36:57;92945.31;;;0.65;97.28
16738;BME280;17906;47.684;10.806;2023-03-19T01:39:23;92940.00;;;0.71;95.82
16738;BME280;17906;47.684;10.806;2023-03-19T01:41:52;92941.97;;;0.63;95.33
16738;BME280;17906;47.684;10.806;2023-03-19T01:44:23;92940.19;;;0.70;95.58
16738;BME280;17906;47.684;10.806;2023-03-19T01:46:50;92946.75;;;0.67;94.74
16738;BME280;17906;47.684;10.806;2023-03-19T01:49:17;92949.84;;;0.71;94.90
16738;BME280;17906;47.684;10.806;2023-03-19T01:51:46;92938.75;;;0.67;94.75
16738;BME280;17906;47.684;10.806;2023-03-19T01:54:14;92940.78;;;0.65;95.72
16738;BME280;17906;47.684;10.806;2023-03-19T01:56:43;92938.31;;;0.64;96.19
16738;BME280;17906;47.684;10.806;2023-03-19T01:59:16;92947.84;;;0.51;98.57
16738;BME280;17906;47.684;10.806;2023-03-19T02:01:51;92945.59;;;0.48;97.58
16738;BME280;17906;47.684;10.806;2023-03-19T02:04:19;92950.91;;;0.48;100.00
16738;BME280;17906;47.684;10.806;2023-03-19T02:06:46;92949.81;;;0.36;100.00
16738;BME280;17906;47.684;10.806;2023-03-19T02:09:13;92954.41;;;0.49;98.39
16738;BME280;17906;47.684;10.806;2023-03-19T02:11:40;92953.78;;;0.47;98.45
16738;BME280;17906;47.684;10.806;2023-03-19T02:14:08;92957.56;;;0.59;100.00
16738;BME280;17906;47.684;10.806;2023-03-19T02:16:36;92954.75;;;0.67;100.00
16738;BME280;17906;47.684;10.806;2023-03-19T02:19:03;92953.78;;;0.75;100.00
16738;BME280;17906;47.684;10.806;2023-03-19T02:21:30;92960.22;;;0.94;100.00
16738;BME280;17906;47.684;10.806;2023-03-19T02:24:02;92969.72;;;0.96;100.00
16738;BME280;17906;47.684;10.806;2023-03-19T02:26:34;92968.75;;;1.10;100.00
16738;BME280;17906;47.684;10.806;2023-03-19T02:29:01;92966.09;;;1.17;100.00
16738;BME280;17906;47.684;10.806;2023-03-19T02:31:28;92962.03;;;1.28;100.00
16738;BME280;17906;47.684;10.806;2023-03-19T02:33:57;92972.13;;;1.32;100.00
16738;BME280;17906;47.684;10.806;2023-03-19T02:36:26;92965.16;;;1.31;100.00
16738;BME280;17906;47.684;10.806;2023-03-19T02:38:54;92965.59;;;1.41;100.00
16738;BME280;17906;47.684;10.806;2023-03-19T02:41:22;92973.03;;;1.53;100.00
16738;BME280;17906;47.684;10.806;2023-03-19T02:43:52;92976.75;;;1.58;100.00
16738;BME280;17906;47.684;10.806;2023-03-19T02:46:19;92972.88;;;1.67;100.00
16738;BME280;17906;47.684;10.806;2023-03-19T02:48:46;92970.59;;;1.71;100.00
16738;BME280;17906;47.684;10.806;2023-03-19T02:51:13;92976.16;;;1.69;100.00
16738;BME280;17906;47.684;10.806;2023-03-19T02:53:40;92981.31;;;1.77;100.00
16738;BME280;17906;47.684;10.806;2023-03-19T02:56:07;92976.59;;;1.80;100.00
16738;BME280;17906;47.684;10.806;2023-03-19T02:58:33;92982.38;;;1.83;100.00
16738;BME280;17906;47.684;10.806;2023-03-19T03:01:01;92977.66;;;1.92;100.00
16738;BME280;17906;47.684;10.806;2023-03-19T03:03:29;92970.88;;;1.96;100.00
16738;BME280;17906;47.684;10.806;2023-03-19T03:05:55;92986.72;;;1.97;100.00
16738;BME280;17906;47.684;10.806;2023-03-19T03:08:22;92993.09;;;2.03;100.00
16738;BME280;17906;47.684;10.806;2023-03-19T03:10:48;92994.34;;;2.07;100.00
16738;BME280;17906;47.684;10.806;2023-03-19T03:13:15;92994.75;;;2.11;100.00
16738;BME280;17906;47.684;10.806;2023-03-19T03:15:42;92998.25;;;2.11;100.00
16738;BME280;17906;47.684;10.806;2023-03-19T03:18:10;93004.66;;;2.17;100.00
16738;BME280;17906;47.684;10.806;2023-03-19T03:20:36;92996.25;;;2.26;100.00
16738;BME280;17906;47.684;10.806;2023-03-19T03:23:03;93002.19;;;2.35;100.00
16738;BME280;17906;47.684;10.806;2023-03-19T03:25:29;93013.53;;;2.37;100.00
16738;BME280;17906;47.684;10.806;2023-03-19T03:27:56;93002.63;;;2.45;100.00
16738;BME280;17906;47.684;10.806;2023-03-19T03:30:23;93006.94;;;2.53;99.21
16738;BME280;17906;47.684;10.806;2023-03-19T03:32:49;93012.09;;;2.54;99.46
16738;BME280;17906;47.684;10.806;2023-03-19T03:35:18;93015.81;;;2.60;98.87
16738;BME280;17906;47.684;10.806;2023-03-19T03:37:47;93022.19;;;2.65;98.63
16738;BME280;17906;47.684;10.806;2023-03-19T03:40:14;93016.41;;;2.69;98.16
16738;BME280;17906;47.684;10.806;2023-03-19T03:42:41;93018.47;;;2.73;97.42
16738;BME280;17906;47.684;10.806;2023-03-19T03:45:09;93034.31;;;2.75;97.11
16738;BME280;17906;47.684;10.806;2023-03-19T03:47:36;93022.00;;;2.80;96.84
16738;BME280;17906;47.684;10.806;2023-03-19T03:50:04;93032.47;;;2.82;97.40
16738;BME280;17906;47.684;10.806;2023-03-19T03:52:32;93036.38;;;2.86;96.75
16738;BME280;17906;47.684;10.806;2023-03-19T03:54:59;93034.31;;;2.88;96.45
16738;BME280;17906;47.684;10.806;2023-03-19T03:57:26;93037.22;;;2.93;96.03
16738;BME280;17906;47.684;10.806;2023-03-19T03:59:52;93045.00;;;3.01;95.45
16738;BME280;17906;47.684;10.806;2023-03-19T04:02:19;93037.81;;;3.15;94.10
16738;BME280;17906;47.684;10.806;2023-03-19T04:04:46;93037.13;;;3.33;93.78
16738;BME280;17906;47.684;10.806;2023-03-19T04:07:13;93054.22;;;3.51;89.64
16738;BME280;17906;47.684;10.806;2023-03-19T04:09:41;59087.34;;;-146.04;100.00
16738;BME280;17906;47.684;10.806;2023-03-19T04:12:08;93050.56;;;4.04;87.03
16738;BME280;17906;47.684;10.806;2023-03-19T04:14:35;93057.09;;;4.21;87.72
16738;BME280;17906;47.684;10.806;2023-03-19T04:17:02;93059.25;;;4.37;84.31
16738;BME280;17906;47.684;10.806;2023-03-19T04:19:29;93059.97;;;4.58;82.28
16738;BME280;17906;47.684;10.806;2023-03-19T04:21:57;93052.81;;;4.77;100.00
16738;BME280;17906;47.684;10.806;2023-03-19T04:24:24;59087.34;;;-146.04;100.00
16738;BME280;17906;47.684;10.806;2023-03-19T04:26:52;59087.34;;;-146.04;100.00
16738;BME280;17906;47.684;10.806;2023-03-19T04:29:18;59087.34;;;-146.04;100.00
16738;BME280;17906;47.684;10.806;2023-03-19T04:31:45;59087.34;;;-146.04;100.00
16738;BME280;17906;47.684;10.806;2023-03-19T04:34:12;59087.34;;;-146.04;100.00
16738;BME280;17906;47.684;10.806;2023-03-19T04:36:38;59087.34;;;-146.04;100.00
16738;BME280;17906;47.684;10.806;2023-03-19T04:39:05;59087.34;;;-146.04;100.00
16738;BME280;17906;47.684;10.806;2023-03-19T04:41:32;59087.34;;;-146.04;100.00
16738;BME280;17906;47.684;10.806;2023-03-19T04:44:00;59087.34;;;-146.04;100.00
16738;BME280;17906;47.684;10.806;2023-03-19T04:46:27;59087.34;;;-146.04;100.00
16738;BME280;17906;47.684;10.806;2023-03-19T04:48:54;59087.34;;;-146.04;100.00
16738;BME280;17906;47.684;10.806;2023-03-19T04:51:20;59087.34;;;-146.04;100.00
16738;BME280;17906;47.684;10.806;2023-03-19T04:53:47;59087.34;;;-146.04;100.00
16738;BME280;17906;47.684;10.806;2023-03-19T04:56:14;59087.34;;;-146.04;100.00
16738;BME280;17906;47.684;10.806;2023-03-19T04:58:42;59087.34;;;-146.04;100.00
16738;BME280;17906;47.684;10.806;2023-03-19T05:01:10;59087.34;;;-146.04;100.00
16738;BME280;17906;47.684;10.806;2023-03-19T05:03:36;59087.34;;;-146.04;100.00
16738;BME280;17906;47.684;10.806;2023-03-19T05:06:03;59087.34;;;-146.04;100.00
16738;BME280;17906;47.684;10.806;2023-03-19T05:08:31;59087.34;;;-146.04;100.00
16738;BME280;17906;47.684;10.806;2023-03-19T05:10:58;59087.34;;;-146.04;100.00
16738;BME280;17906;47.684;10.806;2023-03-19T05:13:24;59087.34;;;-146.04;100.00
16738;BME280;17906;47.684;10.806;2023-03-19T05:15:52;59087.34;;;-146.04;100.00
16738;BME280;17906;47.684;10.806;2023-03-19T05:18:22;59087.34;;;-146.04;100.00
16738;BME280;17906;47.684;10.806;2023-03-19T05:20:48;59087.34;;;-146.04;100.00
16738;BME280;17906;47.684;10.806;2023-03-19T05:23:15;59087.34;;;-146.04;100.00
16738;BME280;17906;47.684;10.806;2023-03-19T05:25:42;59087.34;;;-146.04;100.00
16738;BME280;17906;47.684;10.806;2023-03-19T05:28:09;59087.34;;;-146.04;100.00
16738;BME280;17906;47.684;10.806;2023-03-19T05:30:35;59087.34;;;-146.04;100.00
16738;BME280;17906;47.684;10.806;2023-03-19T05:33:02;59087.34;;;-146.04;100.00
16738;BME280;17906;47.684;10.806;2023-03-19T05:35:30;59087.34;;;-146.04;100.00
16738;BME280;17906;47.684;10.806;2023-03-19T05:37:56;59087.34;;;-146.04;100.00
16738;BME280;17906;47.684;10.806;2023-03-19T05:40:23;59087.34;;;-146.04;100.00
16738;BME280;17906;47.684;10.806;2023-03-19T05:42:50;59087.34;;;-146.04;100.00
16738;BME280;17906;47.684;10.806;2023-03-19T05:45:17;59087.34;;;-146.04;100.00
16738;BME280;17906;47.684;10.806;2023-03-19T05:47:46;59087.34;;;-146.04;100.00
16738;BME280;17906;47.684;10.806;2023-03-19T05:50:13;59087.34;;;-146.04;100.00
16738;BME280;17906;47.684;10.806;2023-03-19T05:52:40;59087.34;;;-146.04;100.00
16738;BME280;17906;47.684;10.806;2023-03-19T05:55:07;59087.34;;;-146.04;100.00
16738;BME280;17906;47.684;10.806;2023-03-19T05:57:34;59087.34;;;-146.04;100.00
16738;BME280;17906;47.684;10.806;2023-03-19T06:00:02;59087.34;;;-146.04;100.00
16738;BME280;17906;47.684;10.806;2023-03-19T06:02:31;59087.34;;;-146.04;100.00
16738;BME280;17906;47.684;10.806;2023-03-19T06:04:57;59087.34;;;-146.04;100.00
16738;BME280;17906;47.684;10.806;2023-03-19T06:07:24;59087.34;;;-146.04;100.00
16738;BME280;17906;47.684;10.806;2023-03-19T06:09:52;59087.34;;;-146.04;100.00
16738;BME280;17906;47.684;10.806;2023-03-19T06:12:18;59087.34;;;-146.04;100.00
16738;BME280;17906;47.684;10.806;2023-03-19T06:14:44;59087.34;;;-146.04;100.00
16738;BME280;17906;47.684;10.806;2023-03-19T06:17:12;59087.34;;;-146.04;100.00
16738;BME280;17906;47.684;10.806;2023-03-19T06:19:39;59087.34;;;-146.04;100.00
16738;BME280;17906;47.684;10.806;2023-03-19T06:22:06;59087.34;;;-146.04;100.00
16738;BME280;17906;47.684;10.806;2023-03-19T06:24:33;59087.34;;;-146.04;100.00
16738;BME280;17906;47.684;10.806;2023-03-19T06:27:01;59087.34;;;-146.04;100.00
16738;BME280;17906;47.684;10.806;2023-03-19T06:29:27;59087.34;;;-146.04;100.00
16738;BME280;17906;47.684;10.806;2023-03-19T06:31:54;59087.34;;;-146.04;100.00
16738;BME280;17906;47.684;10.806;2023-03-19T06:34:20;59087.34;;;-146.04;100.00
16738;BME280;17906;47.684;10.806;2023-03-19T06:36:47;59087.34;;;-146.04;100.00
16738;BME280;17906;47.684;10.806;2023-03-19T06:39:14;59087.34;;;-146.04;100.00
16738;BME280;17906;47.684;10.806;2023-03-19T06:41:40;59087.34;;;-146.04;100.00
16738;BME280;17906;47.684;10.806;2023-03-19T06:44:08;59087.34;;;-146.04;100.00
16738;BME280;17906;47.684;10.806;2023-03-19T06:46:35;59087.34;;;-146.04;100.00
16738;BME280;17906;47.684;10.806;2023-03-19T06:49:02;59087.34;;;-146.04;100.00
16738;BME280;17906;47.684;10.806;2023-03-19T06:51:28;59087.34;;;-146.04;100.00
16738;BME280;17906;47.684;10.806;2023-03-19T06:53:55;59087.34;;;-146.04;100.00
16738;BME280;17906;47.684;10.806;2023-03-19T06:56:22;59087.34;;;-146.04;100.00
16738;BME280;17906;47.684;10.806;2023-03-19T06:58:48;59087.34;;;-146.04;100.00
16738;BME280;17906;47.684;10.806;2023-03-19T07:01:16;59087.34;;;-146.04;100.00
16738;BME280;17906;47.684;10.806;2023-03-19T07:03:43;59087.34;;;-146.04;100.00
16738;BME280;17906;47.684;10.806;2023-03-19T07:06:09;59087.34;;;-146.04;100.00
16738;BME280;17906;47.684;10.806;2023-03-19T07:08:36;59087.34;;;-146.04;100.00
16738;BME280;17906;47.684;10.806;2023-03-19T07:11:03;59087.34;;;-146.04;100.00
16738;BME280;17906;47.684;10.806;2023-03-19T07:13:30;59087.34;;;-146.04;100.00
16738;BME280;17906;47.684;10.806;2023-03-19T07:15:57;59087.34;;;-146.04;100.00
16738;BME280;17906;47.684;10.806;2023-03-19T07:18:25;59087.34;;;-146.04;100.00
16738;BME280;17906;47.684;10.806;2023-03-19T07:20:52;59087.34;;;-146.04;100.00
16738;BME280;17906;47.684;10.806;2023-03-19T07:23:19;59087.34;;;-146.04;100.00
16738;BME280;17906;47.684;10.806;2023-03-19T07:25:45;59087.34;;;-146.04;100.00
16738;BME280;17906;47.684;10.806;2023-03-19T07:28:12;59087.34;;;-146.04;100.00
16738;BME280;17906;47.684;10.806;2023-03-19T07:30:39;59087.34;;;-146.04;100.00
16738;BME280;17906;47.684;10.806;2023-03-19T07:33:06;59087.34;;;-146.04;100.00
16738;BME280;17906;47.684;10.806;2023-03-19T07:35:34;59087.34;;;-146.04;100.00
16738;BME280;17906;47.684;10.806;2023-03-19T07:38:01;59087.34;;;-146.04;100.00
16738;BME280;17906;47.684;10.806;2023-03-19T07:40:27;59087.34;;;-146.04;100.00
16738;BME280;17906;47.684;10.806;2023-03-19T07:42:54;59087.34;;;-146.04;100.00
16738;BME280;17906;47.684;10.806;2023-03-19T07:45:21;59087.34;;;-146.04;100.00
16738;BME280;17906;47.684;10.806;2023-03-19T07:47:48;59087.34;;;-146.04;100.00
16738;BME280;17906;47.684;10.806;2023-03-19T07:50:15;59087.34;;;-146.04;100.00
16738;BME280;17906;47.684;10.806;2023-03-19T07:52:45;59087.34;;;-146.04;100.00
16738;BME280;17906;47.684;10.806;2023-03-19T07:55:12;59087.34;;;-146.04;100.00
16738;BME280;17906;47.684;10.806;2023-03-19T07:57:38;59087.34;;;-146.04;100.00
16738;BME280;17906;47.684;10.806;2023-03-19T08:00:06;59087.34;;;-146.04;100.00
16738;BME280;17906;47.684;10.806;2023-03-19T08:02:33;59087.34;;;-146.04;100.00
16738;BME280;17906;47.684;10.806;2023-03-19T08:04:59;59087.34;;;-146.04;100.00
16738;BME280;17906;47.684;10.806;2023-03-19T08:07:29;59087.34;;;-146.04;100.00
16738;BME280;17906;47.684;10.806;2023-03-19T08:09:57;59087.34;;;-146.04;100.00
16738;BME280;17906;47.684;10.806;2023-03-19T08:12:24;59087.34;;;-146.04;100.00
16738;BME280;17906;47.684;10.806;2023-03-19T08:14:50;59087.34;;;-146.04;100.00
16738;BME280;17906;47.684;10.806;2023-03-19T08:17:17;59087.34;;;-146.04;100.00
16738;BME280;17906;47.684;10.806;2023-03-19T08:19:43;59087.34;;;-146.04;100.00
16738;BME280;17906;47.684;10.806;2023-03-19T08:22:11;93052.81;;;4.77;81.07
16738;BME280;17906;47.684;10.806;2023-03-19T08:24:37;93244.88;;;7.82;67.64
16738;BME280;17906;47.684;10.806;2023-03-19T08:27:06;93244.28;;;7.80;65.88
16738;BME280;17906;47.684;10.806;2023-03-19T08:29:33;93229.81;;;7.74;65.97
16738;BME280;17906;47.684;10.806;2023-03-19T08:31:59;93242.59;;;7.79;64.73
16738;BME280;17906;47.684;10.806;2023-03-19T08:34:26;93232.88;;;7.78;61.82
16738;BME280;17906;47.684;10.806;2023-03-19T08:36:53;93236.50;;;7.72;63.74
16738;BME280;17906;47.684;10.806;2023-03-19T08:39:19;93248.59;;;7.69;62.65
16738;BME280;17906;47.684;10.806;2023-03-19T08:41:46;93242.78;;;7.54;64.39
16738;BME280;17906;47.684;10.806;2023-03-19T08:44:14;93247.13;;;7.55;64.62
16738;BME280;17906;47.684;10.806;2023-03-19T08:46:40;93245.63;;;7.59;65.49
16738;BME280;17906;47.684;10.806;2023-03-19T08:49:07;93254.34;;;7.73;65.55
16738;BME280;17906;47.684;10.806;2023-03-19T08:51:34;93238.09;;;7.91;64.21
16738;BME280;17906;47.684;10.806;2023-03-19T08:54:00;93235.44;;;8.26;64.62
16738;BME280;17906;47.684;10.806;2023-03-19T08:56:27;93233.91;;;8.54;62.09
16738;BME280;17906;47.684;10.806;2023-03-19T08:58:55;93232.38;;;8.69;62.03
16738;BME280;17906;47.684;10.806;2023-03-19T09:01:22;93243.03;;;8.88;59.64
16738;BME280;17906;47.684;10.806;2023-03-19T09:03:49;93236.31;;;9.02;61.74
16738;BME280;17906;47.684;10.806;2023-03-19T09:06:16;93237.56;;;9.23;58.30
16738;BME280;17906;47.684;10.806;2023-03-19T09:08:43;93237.59;;;9.40;57.37
16738;BME280;17906;47.684;10.806;2023-03-19T09:11:10;93243.16;;;9.33;58.92
16738;BME280;17906;47.684;10.806;2023-03-19T09:13:38;93245.72;;;9.40;57.34
16738;BME280;17906;47.684;10.806;2023-03-19T09:16:05;93253.81;;;9.40;57.58
16738;BME280;17906;47.684;10.806;2023-03-19T09:18:34;93249.25;;;9.40;59.11
16738;BME280;17906;47.684;10.806;2023-03-19T09:21:00;93252.56;;;9.30;56.76
16738;BME280;17906;47.684;10.806;2023-03-19T09:23:27;93257.44;;;9.17;57.22
16738;BME280;17906;47.684;10.806;2023-03-19T09:25:54;93266.59;;;9.16;59.87
16738;BME280;17906;47.684;10.806;2023-03-19T09:28:21;93261.09;;;9.11;56.20
16738;BME280;17906;47.684;10.806;2023-03-19T09:30:48;93265.31;;;9.07;56.34
16738;BME280;17906;47.684;10.806;2023-03-19T09:33:16;93263.09;;;9.03;56.56
16738;BME280;17906;47.684;10.806;2023-03-19T09:35:48;93256.09;;;8.91;58.21
16738;BME280;17906;47.684;10.806;2023-03-19T09:38:15;93271.59;;;8.84;60.60
16738;BME280;17906;47.684;10.806;2023-03-19T09:40:43;93269.13;;;8.94;60.00
16738;BME280;17906;47.684;10.806;2023-03-19T09:43:38;93269.25;;;8.99;58.56
16738;BME280;17906;47.684;10.806;2023-03-19T09:46:11;93269.34;;;9.04;60.19
16738;BME280;17906;47.684;10.806;2023-03-19T09:48:42;93265.47;;;9.00;58.65
16738;BME280;17906;47.684;10.806;2023-03-19T09:51:16;93254.41;;;9.01;58.62
16738;BME280;17906;47.684;10.806;2023-03-19T09:53:46;93259.88;;;9.18;59.07
16738;BME280;17906;47.684;10.806;2023-03-19T09:56:15;93250.00;;;9.24;58.57
16738;BME280;17906;47.684;10.806;2023-03-19T09:58:44;93249.63;;;9.32;58.46
16738;BME280;17906;47.684;10.806;2023-03-19T10:01:21;93248.66;;;9.10;56.78
16738;BME280;17906;47.684;10.806;2023-03-19T10:04:01;93246.97;;;9.09;56.87
16738;BME280;17906;47.684;10.806;2023-03-19T10:06:33;93244.47;;;9.19;56.86
16738;BME280;17906;47.684;10.806;2023-03-19T10:09:19;93242.16;;;9.51;58.26
16738;BME280;17906;47.684;10.806;2023-03-19T10:12:01;93234.25;;;9.61;58.78
16738;BME280;17906;47.684;10.806;2023-03-19T10:14:54;93239.00;;;9.54;57.35
16738;BME280;17906;47.684;10.806;2023-03-19T10:17:29;93244.81;;;9.63;55.74
16738;BME280;17906;47.684;10.806;2023-03-19T10:20:00;93230.22;;;9.64;56.74
16738;BME280;17906;47.684;10.806;2023-03-19T10:22:33;93233.41;;;9.89;55.35
16738;BME280;17906;47.684;10.806;2023-03-19T10:25:02;93231.19;;;10.03;55.41
16738;BME280;17906;47.684;10.806;2023-03-19T10:27:30;93231.94;;;10.32;53.43
16738;BME280;17906;47.684;10.806;2023-03-19T10:29:56;93230.03;;;10.66;54.18
16738;BME280;17906;47.684;10.806;2023-03-19T10:32:28;93223.91;;;10.92;51.02
16738;BME280;17906;47.684;10.806;2023-03-19T10:35:01;93229.28;;;11.09;51.79
16738;BME280;17906;47.684;10.806;2023-03-19T10:37:33;93227.78;;;11.18;51.44
16738;BME280;17906;47.684;10.806;2023-03-19T10:40:00;93223.75;;;11.21;49.90
16738;BME280;17906;47.684;10.806;2023-03-19T10:42:44;93216.81;;;11.30;50.61
16738;BME280;17906;47.684;10.806;2023-03-19T10:45:24;93221.66;;;11.28;49.43
16738;BME280;17906;47.684;10.806;2023-03-19T10:47:52;93214.69;;;11.37;47.84
16738;BME280;17906;47.684;10.806;2023-03-19T10:50:22;93214.94;;;11.36;49.03
16738;BME280;17906;47.684;10.806;2023-03-19T10:53:03;93210.94;;;11.38;51.99
16738;BME280;17906;47.684;10.806;2023-03-19T10:55:31;93216.53;;;11.53;50.83
16738;BME280;17906;47.684;10.806;2023-03-19T10:58:02;93209.97;;;11.49;50.52
16738;BME280;17906;47.684;10.806;2023-03-19T11:00:31;93208.75;;;11.62;50.04
16738;BME280;17906;47.684;10.806;2023-03-19T11:02:58;93201.97;;;11.65;48.28
16738;BME280;17906;47.684;10.806;2023-03-19T11:05:30;93216.44;;;11.70;47.56
16738;BME280;17906;47.684;10.806;2023-03-19T11:08:00;93206.19;;;11.50;48.18
16738;BME280;17906;47.684;10.806;2023-03-19T11:10:29;93198.78;;;11.46;48.93
16738;BME280;17906;47.684;10.806;2023-03-19T11:12:58;93195.38;;;11.33;49.04
16738;BME280;17906;47.684;10.806;2023-03-19T11:15:33;93192.75;;;11.39;51.10
16738;BME280;17906;47.684;10.806;2023-03-19T11:18:06;93196.97;;;11.29;49.52
16738;BME280;17906;47.684;10.806;2023-03-19T11:20:38;93193.81;;;11.38;47.86
16738;BME280;17906;47.684;10.806;2023-03-19T11:23:13;93192.63;;;11.28;47.99
16738;BME280;17906;47.684;10.806;2023-03-19T11:25:46;93196.91;;;11.73;48.04
16738;BME280;17906;47.684;10.806;2023-03-19T11:28:16;93192.50;;;11.94;48.46
16738;BME280;17906;47.684;10.806;2023-03-19T11:30:49;93183.28;;;12.00;47.26
16738;BME280;17906;47.684;10.806;2023-03-19T11:36:28;93190.63;;;12.27;48.58
16738;BME280;17906;47.684;10.806;2023-03-19T11:39:10;93184.94;;;12.01;47.57
16738;BME280;17906;47.684;10.806;2023-03-19T11:41:52;93185.28;;;12.37;47.29
16738;BME280;17906;47.684;10.806;2023-03-19T11:44:25;93176.13;;;12.53;45.06
16738;BME280;17906;47.684;10.806;2023-03-19T11:47:03;93176.19;;;12.58;46.02
16738;BME280;17906;47.684;10.806;2023-03-19T11:49:55;93179.50;;;12.70;48.23
16738;BME280;17906;47.684;10.806;2023-03-19T11:52:34;93173.81;;;12.77;47.27
16738;BME280;17906;47.684;10.806;2023-03-19T11:55:20;93165.53;;;12.52;45.78
16738;BME280;17906;47.684;10.806;2023-03-19T11:58:06;93173.38;;;12.48;46.88
16738;BME280;17906;47.684;10.806;2023-03-19T12:00:42;93163.53;;;12.89;45.15
16738;BME280;17906;47.684;10.806;2023-03-19T12:03:39;93158.75;;;13.06;46.73
16738;BME280;17906;47.684;10.806;2023-03-19T12:06:22;93154.66;;;13.04;44.10
16738;BME280;17906;47.684;10.806;2023-03-19T12:08:56;93150.63;;;13.22;44.79
16738;BME280;17906;47.684;10.806;2023-03-19T12:11:34;93154.69;;;13.14;44.57
16738;BME280;17906;47.684;10.806;2023-03-19T12:14:25;93139.06;;;12.89;44.33
16738;BME280;17906;47.684;10.806;2023-03-19T12:17:17;93142.03;;;12.88;46.00
16738;BME280;17906;47.684;10.806;2023-03-19T12:20:00;93143.50;;;12.53;46.23
16738;BME280;17906;47.684;10.806;2023-03-19T12:22:41;93126.16;;;12.59;46.59
16738;BME280;17906;47.684;10.806;2023-03-19T12:25:23;93133.09;;;12.45;46.56
16738;BME280;17906;47.684;10.806;2023-03-19T12:27:59;93129.78;;;12.33;46.44
16738;BME280;17906;47.684;10.806;2023-03-19T12:30:32;93125.53;;;12.47;44.83
16738;BME280;17906;47.684;10.806;2023-03-19T12:33:10;93126.16;;;12.22;45.42
16738;BME280;17906;47.684;10.806;2023-03-19T12:35:42;93130.38;;;12.40;44.29
16738;BME280;17906;47.684;10.806;2023-03-19T12:38:15;93125.88;;;12.61;45.52
16738;BME280;17906;47.684;10.806;2023-03-19T12:40:47;93127.56;;;12.77;44.94
16738;BME280;17906;47.684;10.806;2023-03-19T12:43:20;93120.03;;;12.37;44.93
16738;BME280;17906;47.684;10.806;2023-03-19T12:45:53;93128.91;;;12.69;45.24
16738;BME280;17906;47.684;10.806;2023-03-19T12:48:25;93125.81;;;13.08;44.75
16738;BME280;17906;47.684;10.806;2023-03-19T12:50:57;93119.13;;;12.73;44.19
16738;BME280;17906;47.684;10.806;2023-03-19T12:53:30;93114.75;;;12.67;45.11
16738;BME280;17906;47.684;10.806;2023-03-19T12:56:03;93115.59;;;12.68;45.15
16738;BME280;17906;47.684;10.806;2023-03-19T12:58:38;93105.59;;;12.89;46.37